Time;durP1;ratioP1;P1;durP2;ratioP2;P2;SDS_P1;SDS_P2;PMS_P1;PMS_P2;Temp;Humidity;BMP_temperature;BMP_pressure;BME280_temperature;BME280_humidity;BME280_pressure;Samples;Min_cycle;Max_cycle;Signal;HPM_P1;HPM_P2
2021/06/04 00:00:59;;;;;;;10.68;7.45;;;;;;;17.76;67.07;100507.16;5031412;28;20140;-64
2021/06/04 00:03:25;;;;;;;11.23;6.82;;;;;;;17.73;66.75;100496.00;5026592;28;20036;-63
2021/06/04 00:05:53;;;;;;;10.57;6.70;;;;;;;17.55;67.12;100509.75;5030522;28;20052;-63
2021/06/04 00:08:21;;;;;;;8.23;6.30;;;;;;;17.40;67.98;100506.28;5028994;28;20033;-63
2021/06/04 00:11:00;;;;;;;12.68;6.60;;;;;;;17.37;68.56;100502.13;5040102;28;20073;-64
2021/06/04 00:13:42;;;;;;;8.40;6.60;;;;;;;17.41;68.71;100507.94;5041191;28;20040;-63
2021/06/04 00:16:14;;;;;;;10.68;6.30;;;;;;;17.48;68.66;100498.13;5029516;28;20033;-64
2021/06/04 00:18:42;;;;;;;10.40;6.47;;;;;;;17.59;67.77;100497.66;5035274;28;20037;-63
2021/06/04 00:21:14;;;;;;;10.68;6.28;;;;;;;17.51;68.28;100500.44;5029575;28;20068;-64
2021/06/04 00:23:40;;;;;;;9.02;6.22;;;;;;;17.70;67.53;100496.38;5026616;28;20037;-63
2021/06/04 00:26:07;;;;;;;9.73;6.38;;;;;;;17.73;67.21;100504.03;5031332;28;20037;-64
2021/06/04 00:28:33;;;;;;;7.97;6.20;;;;;;;17.74;67.18;100501.16;5028664;28;20034;-63
2021/06/04 00:30:58;;;;;;;12.80;6.68;;;;;;;17.89;67.04;100508.31;5026592;28;20038;-64
2021/06/04 00:33:25;;;;;;;11.40;6.40;;;;;;;17.49;67.77;100508.66;5030220;28;20266;-63
2021/06/04 00:35:51;;;;;;;10.50;6.80;;;;;;;17.02;69.79;100513.63;5011813;28;20041;-63
2021/06/04 00:38:17;;;;;;;8.50;6.38;;;;;;;16.64;71.08;100502.94;5030256;28;20041;-64
2021/06/04 00:40:49;;;;;;;10.55;6.03;;;;;;;16.61;71.20;100504.13;5026384;28;20025;-63
2021/06/04 00:43:15;;;;;;;12.15;6.40;;;;;;;16.60;72.00;100505.16;5041214;28;20230;-64
2021/06/04 00:45:47;;;;;;;14.13;6.53;;;;;;;16.79;71.39;100500.34;5027500;28;20093;-64
2021/06/04 00:48:13;;;;;;;7.90;6.43;;;;;;;17.09;70.09;100498.47;5027077;28;20029;-64
2021/06/04 00:50:45;;;;;;;9.80;6.55;;;;;;;17.07;70.23;100505.88;5032842;28;20071;-63
2021/06/04 00:53:11;;;;;;;8.57;6.38;;;;;;;16.99;70.27;100498.75;5021592;28;20346;-64
2021/06/04 00:55:38;;;;;;;12.55;6.28;;;;;;;17.14;70.19;100504.09;5008675;28;20065;-63
2021/06/04 00:58:04;;;;;;;8.18;6.40;;;;;;;17.26;69.63;100499.09;5031178;28;20084;-63
2021/06/04 01:00:36;;;;;;;12.38;6.20;;;;;;;17.24;69.69;100500.13;5024291;28;20034;-64
2021/06/04 01:03:02;;;;;;;15.57;7.15;;;;;;;17.20;69.91;100500.69;5026835;28;20030;-64
2021/06/04 01:05:30;;;;;;;9.55;6.60;;;;;;;17.08;70.26;100497.66;5025442;28;20033;-64
2021/06/04 01:08:11;;;;;;;12.13;6.93;;;;;;;17.20;70.07;100495.34;5027996;28;20287;-64
2021/06/04 01:10:58;;;;;;;9.15;6.68;;;;;;;17.26;69.61;100507.13;5025087;28;20026;-64
2021/06/04 01:13:55;;;;;;;12.50;6.97;;;;;;;17.31;69.48;100500.22;5029576;28;20045;-63
2021/06/04 01:16:45;;;;;;;11.35;6.47;;;;;;;17.40;68.68;100504.44;5010357;28;20310;-64
2021/06/04 01:19:43;;;;;;;8.93;6.28;;;;;;;17.53;67.91;100507.25;5000485;28;20045;-64
2021/06/04 01:22:23;;;;;;;17.88;6.22;;;;;;;17.52;67.44;100499.41;5025731;28;20521;-64
2021/06/04 01:25:13;;;;;;;13.35;6.20;;;;;;;17.54;67.41;100500.88;5020662;28;20061;-63
2021/06/04 01:27:44;;;;;;;8.90;6.50;;;;;;;17.28;68.51;100505.94;5007431;28;20029;-64
2021/06/04 01:30:25;;;;;;;13.98;6.38;;;;;;;17.27;68.80;100504.28;5029947;28;20040;-64
2021/06/04 01:32:54;;;;;;;10.35;6.93;;;;;;;17.28;68.74;100505.94;5022017;28;20042;-63
2021/06/04 01:35:25;;;;;;;13.65;6.13;;;;;;;17.37;68.10;100507.47;5021261;28;20059;-64
2021/06/04 01:37:52;;;;;;;8.65;6.88;;;;;;;17.27;68.19;100498.09;5022582;28;20034;-63
2021/06/04 01:40:40;;;;;;;12.25;6.90;;;;;;;17.31;67.96;100508.22;5028481;28;20034;-64
2021/06/04 01:43:15;;;;;;;10.35;6.45;;;;;;;17.20;67.85;100514.88;5028716;28;20056;-63
2021/06/04 01:45:45;;;;;;;9.80;6.57;;;;;;;17.18;67.97;100516.94;5024617;28;20030;-64
2021/06/04 01:48:14;;;;;;;15.05;7.43;;;;;;;17.18;68.21;100530.31;5024023;28;20357;-64
2021/06/04 01:50:47;;;;;;;18.17;6.57;;;;;;;17.21;68.37;100521.06;5034222;28;20079;-64
2021/06/04 01:53:29;;;;;;;13.70;6.78;;;;;;;17.13;68.72;100530.03;5034600;28;20354;-64
2021/06/04 01:56:01;;;;;;;11.32;8.02;;;;;;;17.05;68.94;100526.63;5026855;28;20052;-63
2021/06/04 01:58:39;;;;;;;12.20;7.93;;;;;;;17.11;68.00;100525.88;5033682;28;20037;-64
2021/06/04 02:01:13;;;;;;;12.90;7.55;;;;;;;16.95;68.42;100532.25;5037472;28;20088;-63
2021/06/04 02:03:39;;;;;;;10.88;7.07;;;;;;;16.84;68.53;100516.66;5036327;28;20065;-63
2021/06/04 02:06:07;;;;;;;14.90;7.43;;;;;;;16.76;68.94;100519.41;5036556;28;20041;-64
2021/06/04 02:08:43;;;;;;;13.50;7.80;;;;;;;16.75;69.09;100534.63;5028510;28;20042;-64
2021/06/04 02:11:10;;;;;;;12.60;7.70;;;;;;;16.76;69.19;100541.66;5028352;28;20014;-64
2021/06/04 02:13:39;;;;;;;11.90;7.85;;;;;;;16.66;69.69;100538.41;5031179;28;20041;-64
2021/06/04 02:16:30;;;;;;;11.40;7.78;;;;;;;16.76;69.66;100530.94;5030358;28;20041;-63
2021/06/04 02:19:29;;;;;;;18.17;7.95;;;;;;;16.74;68.81;100537.50;5003477;28;20080;-63
2021/06/04 02:22:11;;;;;;;14.43;8.55;;;;;;;16.71;68.66;100537.84;5029204;28;20026;-63
2021/06/04 02:24:44;;;;;;;13.98;9.10;;;;;;;16.80;67.99;100540.28;5038942;28;20037;-64
2021/06/04 02:27:19;;;;;;;13.00;9.02;;;;;;;16.72;68.05;100540.34;5025449;28;20037;-64
2021/06/04 02:29:50;;;;;;;13.93;8.52;;;;;;;16.72;68.17;100537.69;5032511;28;20282;-64
2021/06/04 02:32:25;;;;;;;16.65;8.50;;;;;;;16.69;68.10;100535.38;5035672;28;20214;-64
2021/06/04 02:35:05;;;;;;;17.55;8.23;;;;;;;16.76;67.59;100540.81;5027738;28;20057;-64
2021/06/04 02:37:43;;;;;;;12.73;8.52;;;;;;;16.80;67.18;100528.75;5035597;28;20039;-63
2021/06/04 02:40:12;;;;;;;20.35;8.90;;;;;;;16.60;67.89;100544.41;5031561;28;20259;-64
2021/06/04 02:42:47;;;;;;;13.05;8.27;;;;;;;16.61;67.74;100544.25;5035290;28;20034;-63
2021/06/04 02:45:53;;;;;;;13.40;8.25;;;;;;;16.64;67.58;100545.72;5028182;28;20045;-64
2021/06/04 02:48:21;;;;;;;17.27;8.55;;;;;;;16.56;68.09;100551.13;5019579;28;20042;-63
2021/06/04 02:50:56;;;;;;;14.90;8.45;;;;;;;16.60;67.27;100545.25;5022733;28;20033;-63
2021/06/04 02:53:27;;;;;;;18.98;9.50;;;;;;;16.50;68.08;100558.03;5026746;28;20029;-63
2021/06/04 02:56:05;;;;;;;15.60;9.15;;;;;;;16.55;67.88;100555.66;5038228;28;20069;-64
2021/06/04 02:58:31;;;;;;;19.63;7.35;;;;;;;16.61;67.46;100562.94;5012576;28;20041;-63
2021/06/04 03:00:56;;;;;;;18.63;9.30;;;;;;;16.59;67.43;100556.97;5029702;28;20063;-63
2021/06/04 03:03:22;;;;;;;17.88;9.13;;;;;;;16.50;68.30;100563.38;5035394;28;20042;-64
2021/06/04 03:05:47;;;;;;;27.38;9.98;;;;;;;16.46;68.33;100561.25;5031363;28;20049;-63
2021/06/04 03:08:14;;;;;;;25.83;9.23;;;;;;;16.34;69.27;100563.53;5034885;28;20033;-64
2021/06/04 03:10:45;;;;;;;24.95;8.63;;;;;;;16.40;68.75;100575.34;5037555;28;20195;-64
2021/06/04 03:13:16;;;;;;;18.85;8.75;;;;;;;16.46;68.57;100572.78;5029086;28;20601;-63
2021/06/04 03:15:48;;;;;;;13.98;8.45;;;;;;;16.50;68.44;100579.44;5025575;28;20037;-63
2021/06/04 03:18:28;;;;;;;18.77;8.98;;;;;;;16.45;68.51;100571.13;5030588;28;20046;-64
2021/06/04 03:20:54;;;;;;;17.38;8.45;;;;;;;16.43;68.75;100580.31;5030413;28;20092;-64
2021/06/04 03:23:23;;;;;;;12.35;7.68;;;;;;;16.56;68.44;100578.72;5029784;28;20037;-64
2021/06/04 03:25:53;;;;;;;13.45;7.03;;;;;;;16.39;68.65;100581.69;5040746;28;20060;-63
2021/06/04 03:28:23;;;;;;;14.40;9.07;;;;;;;16.23;68.96;100586.16;5040545;28;20033;-64
2021/06/04 03:30:49;;;;;;;11.60;8.10;;;;;;;16.20;69.17;100573.16;5043208;28;20037;-64
2021/06/04 03:33:18;;;;;;;12.57;8.00;;;;;;;16.25;68.79;100576.13;5043154;28;20091;-64
2021/06/04 03:35:44;;;;;;;15.85;7.20;;;;;;;16.39;68.54;100587.88;5042911;28;20330;-63
2021/06/04 03:38:12;;;;;;;12.13;6.80;;;;;;;16.46;68.19;100588.81;5042770;28;20033;-63
2021/06/04 03:40:38;;;;;;;13.80;7.75;;;;;;;16.56;67.48;100596.59;5041555;28;20045;-64
2021/06/04 03:43:09;;;;;;;14.57;7.85;;;;;;;16.54;67.01;100599.44;5040447;28;20362;-64
2021/06/04 03:45:39;;;;;;;14.85;8.48;;;;;;;16.51;67.06;100594.47;5032377;28;20025;-64
2021/06/04 03:48:07;;;;;;;13.15;7.68;;;;;;;16.42;66.88;100597.38;5027294;28;20029;-64
2021/06/04 03:50:33;;;;;;;18.17;7.97;;;;;;;16.43;67.26;100594.53;5027738;28;20037;-64
2021/06/04 03:52:59;;;;;;;14.15;8.18;;;;;;;16.47;67.14;100592.31;5200321;23;20152;-64
2021/06/04 03:55:26;;;;;;;27.90;7.70;;;;;;;16.44;67.61;100590.84;5036172;28;20210;-63
2021/06/04 03:57:54;;;;;;;14.18;7.63;;;;;;;16.59;67.43;100590.88;5039266;28;20026;-65
2021/06/04 04:00:22;;;;;;;21.85;8.43;;;;;;;16.79;67.08;100600.13;5031524;28;20033;-64
2021/06/04 04:02:47;;;;;;;13.15;8.55;;;;;;;16.96;66.23;100602.63;5031468;28;20274;-65
2021/06/04 04:05:15;;;;;;;26.77;9.57;;;;;;;16.93;66.27;100603.84;5013532;28;20097;-63
2021/06/04 04:07:41;;;;;;;26.92;10.13;;;;;;;17.02;65.83;100609.94;5028038;28;20287;-63
2021/06/04 04:10:09;;;;;;;17.70;8.07;;;;;;;17.06;65.63;100604.03;5032765;28;20223;-63
2021/06/04 04:12:36;;;;;;;22.85;8.05;;;;;;;17.14;65.55;100603.13;5027685;28;20059;-63
2021/06/04 04:15:02;;;;;;;16.75;7.43;;;;;;;17.36;64.86;100604.88;5031055;28;20210;-65
2021/06/04 04:17:29;;;;;;;16.45;7.25;;;;;;;17.48;64.43;100599.88;5026110;28;20029;-63
2021/06/04 04:19:55;;;;;;;22.17;8.30;;;;;;;17.51;64.15;100591.47;5022561;28;20063;-65
2021/06/04 04:22:21;;;;;;;19.80;8.32;;;;;;;17.68;64.32;100606.34;5021433;28;20417;-64
2021/06/04 04:24:46;;;;;;;24.52;9.68;;;;;;;17.77;64.49;100599.91;5037739;28;20017;-65
2021/06/04 04:27:12;;;;;;;17.05;8.25;;;;;;;17.85;64.63;100609.69;5041600;28;20041;-65
2021/06/04 04:29:38;;;;;;;12.90;8.15;;;;;;;17.81;64.83;100605.72;5028232;28;20025;-63
2021/06/04 04:32:12;;;;;;;13.35;7.65;;;;;;;17.86;64.50;100604.13;5030303;28;20033;-65
2021/06/04 04:34:37;;;;;;;18.98;8.13;;;;;;;17.88;64.38;100608.47;5034871;28;20033;-63
2021/06/04 04:37:03;;;;;;;24.13;9.07;;;;;;;17.81;64.85;100611.91;5025639;28;20299;-66
2021/06/04 04:39:32;;;;;;;19.38;8.48;;;;;;;17.78;65.36;100608.75;5013198;28;20025;-65
2021/06/04 04:41:59;;;;;;;17.63;8.40;;;;;;;17.94;64.44;100602.34;5027219;28;20226;-66
2021/06/04 04:44:29;;;;;;;20.70;8.65;;;;;;;17.97;64.85;100610.00;5025508;28;20048;-65
2021/06/04 04:46:56;;;;;;;14.63;8.65;;;;;;;18.08;64.02;100610.34;5029866;28;20084;-64
2021/06/04 04:49:22;;;;;;;15.77;8.88;;;;;;;18.16;64.31;100612.09;5036093;28;20053;-66
2021/06/04 04:51:48;;;;;;;17.13;8.85;;;;;;;18.21;63.42;100604.31;5026901;28;20041;-65
2021/06/04 04:54:13;;;;;;;18.20;8.65;;;;;;;18.26;62.83;100620.63;5026237;28;20030;-65
2021/06/04 04:56:40;;;;;;;13.13;7.57;;;;;;;18.39;62.34;100625.31;5029830;28;20041;-64
2021/06/04 04:59:07;;;;;;;17.05;8.52;;;;;;;18.31;62.37;100620.91;5030004;28;20067;-64
2021/06/04 05:01:33;;;;;;;17.15;8.18;;;;;;;18.30;62.74;100621.09;5022151;28;20037;-66
2021/06/04 05:03:59;;;;;;;19.02;8.23;;;;;;;18.32;62.14;100614.50;5021435;28;20081;-66
2021/06/04 05:06:24;;;;;;;12.07;8.20;;;;;;;18.21;62.78;100614.19;5026872;28;20041;-64
2021/06/04 05:08:50;;;;;;;16.48;8.60;;;;;;;18.29;62.62;100614.06;5024742;28;20041;-66
2021/06/04 05:11:16;;;;;;;13.30;8.30;;;;;;;18.36;62.28;100618.47;5022838;28;20028;-64
2021/06/04 05:13:42;;;;;;;13.35;8.02;;;;;;;18.33;62.67;100613.50;5032991;28;20045;-65
2021/06/04 05:16:08;;;;;;;18.17;8.32;;;;;;;18.49;62.97;100613.22;5034161;28;20335;-63
2021/06/04 05:18:35;;;;;;;16.30;8.10;;;;;;;18.67;62.65;100609.28;5035420;28;20684;-64
2021/06/04 05:21:01;;;;;;;11.80;7.93;;;;;;;18.86;62.50;100618.56;5039089;28;20234;-65
2021/06/04 05:23:27;;;;;;;18.90;8.80;;;;;;;18.95;61.82;100620.91;5015567;28;20033;-64
2021/06/04 05:25:54;;;;;;;25.13;11.38;;;;;;;18.99;61.62;100622.16;5018001;28;20033;-64
2021/06/04 05:28:22;;;;;;;31.08;15.88;;;;;;;19.05;61.96;100632.13;5019211;28;20037;-64
2021/06/04 05:30:50;;;;;;;34.75;17.20;;;;;;;19.13;61.92;100637.34;5029434;28;20079;-64
2021/06/04 05:33:20;;;;;;;14.40;9.30;;;;;;;18.98;62.47;100641.97;5031539;28;20037;-65
2021/06/04 05:35:47;;;;;;;19.05;8.43;;;;;;;19.25;62.03;100640.31;5030754;28;20026;-64
2021/06/04 05:38:13;;;;;;;11.50;8.38;;;;;;;19.13;62.27;100637.34;5029165;28;20041;-64
2021/06/04 05:40:41;;;;;;;15.30;8.30;;;;;;;19.20;61.93;100641.94;5033097;28;20264;-65
2021/06/04 05:43:09;;;;;;;16.70;10.70;;;;;;;19.44;60.91;100638.78;5028995;28;20038;-66
2021/06/04 05:45:38;;;;;;;14.55;9.50;;;;;;;19.60;60.91;100637.66;5036399;28;20225;-64
2021/06/04 05:48:04;;;;;;;19.33;10.88;;;;;;;20.05;59.80;100630.81;5036753;28;20021;-64
2021/06/04 05:50:36;;;;;;;12.82;9.25;;;;;;;20.11;58.32;100637.25;5031225;28;20026;-64
2021/06/04 05:53:03;;;;;;;15.07;10.15;;;;;;;20.33;57.84;100633.38;5028271;28;20041;-66
2021/06/04 05:55:31;;;;;;;15.50;8.85;;;;;;;20.58;58.07;100633.66;5018048;28;20044;-64
2021/06/04 05:57:57;;;;;;;14.00;8.82;;;;;;;20.69;57.60;100622.28;5031468;28;20093;-64
2021/06/04 06:00:40;;;;;;;14.13;7.80;;;;;;;21.04;56.18;100637.19;5035496;28;20061;-66
2021/06/04 06:03:06;;;;;;;16.10;7.72;;;;;;;20.98;55.86;100629.13;5032718;28;20038;-66
2021/06/04 06:05:32;;;;;;;17.60;7.68;;;;;;;20.99;55.04;100646.94;5033533;28;20233;-64
2021/06/04 06:07:57;;;;;;;11.75;7.05;;;;;;;21.04;54.62;100644.44;5037022;28;20101;-66
2021/06/04 06:10:23;;;;;;;18.83;6.30;;;;;;;21.00;54.09;100640.53;5032180;28;20033;-65
2021/06/04 06:12:50;;;;;;;13.35;5.75;;;;;;;20.86;53.89;100638.88;5028791;28;20337;-66
2021/06/04 06:15:16;;;;;;;9.90;5.03;;;;;;;20.51;54.02;100641.72;5029110;28;20195;-66
2021/06/04 06:17:41;;;;;;;13.20;5.60;;;;;;;20.73;54.08;100648.56;5035947;28;20068;-66
2021/06/04 06:20:09;;;;;;;10.57;4.85;;;;;;;20.81;53.77;100644.03;5043564;28;20045;-66
2021/06/04 06:22:35;;;;;;;8.63;5.28;;;;;;;21.00;53.01;100645.91;5041452;28;20337;-66
2021/06/04 06:25:01;;;;;;;10.48;4.75;;;;;;;20.80;53.61;100629.72;5030934;28;20037;-66
2021/06/04 06:27:26;;;;;;;6.78;4.95;;;;;;;20.70;53.58;100640.91;5033081;28;20034;-64
2021/06/04 06:29:52;;;;;;;9.88;5.30;;;;;;;20.68;54.82;100632.22;5028797;28;20080;-64
2021/06/04 06:32:20;;;;;;;10.48;4.85;;;;;;;21.01;54.52;100647.56;5035906;28;20037;-67
2021/06/04 06:34:47;;;;;;;11.52;5.70;;;;;;;21.01;53.98;100642.19;5034757;28;20219;-64
2021/06/04 06:37:13;;;;;;;7.38;5.25;;;;;;;20.84;53.60;100643.63;5031275;28;20041;-64
2021/06/04 06:39:38;;;;;;;9.93;5.28;;;;;;;20.57;54.88;100637.38;5037105;28;20041;-66
2021/06/04 06:42:05;;;;;;;10.55;5.20;;;;;;;21.01;52.50;100643.00;5038469;28;20045;-64
2021/06/04 06:44:32;;;;;;;11.10;4.82;;;;;;;21.38;52.18;100642.56;5035916;28;20033;-64
2021/06/04 06:46:58;;;;;;;9.48;4.65;;;;;;;21.63;49.97;100640.84;5039188;28;20037;-65
2021/06/04 06:49:25;;;;;;;7.75;5.35;;;;;;;21.28;50.98;100640.31;5035513;28;20029;-64
2021/06/04 06:51:51;;;;;;;8.02;4.43;;;;;;;21.65;50.99;100627.97;5036916;28;20026;-66
2021/06/04 06:54:21;;;;;;;13.38;5.55;;;;;;;21.94;49.58;100637.41;5046982;28;20036;-66
2021/06/04 06:56:51;;;;;;;10.77;5.20;;;;;;;22.29;49.06;100635.19;5043053;28;20021;-66
2021/06/04 06:59:16;;;;;;;9.73;4.70;;;;;;;23.01;48.29;100633.88;5046750;28;20056;-64
2021/06/04 07:01:42;;;;;;;8.70;4.68;;;;;;;23.39;46.50;100635.56;5045785;28;20333;-66
2021/06/04 07:07:29;;;;;;;10.25;4.78;;;;;;;23.02;46.48;100638.22;5044979;28;20040;-66
2021/06/04 07:09:55;;;;;;;7.68;4.00;;;;;;;23.10;46.73;100634.41;5047890;28;20326;-64
2021/06/04 07:12:20;;;;;;;8.98;5.32;;;;;;;22.98;46.25;100634.31;5058160;28;20039;-64
2021/06/04 07:14:46;;;;;;;12.13;4.80;;;;;;;23.12;46.62;100643.94;5061161;28;20029;-67
2021/06/04 07:17:11;;;;;;;7.75;4.53;;;;;;;23.61;45.44;100639.50;5046159;28;20037;-64
2021/06/04 07:19:36;;;;;;;9.73;4.60;;;;;;;23.95;44.83;100629.97;5046462;28;20416;-66
2021/06/04 07:22:04;;;;;;;7.38;4.80;;;;;;;23.79;44.45;100634.09;5046127;28;20033;-64
2021/06/04 07:24:30;;;;;;;11.48;5.13;;;;;;;24.10;43.96;100627.66;5045541;28;20029;-64
2021/06/04 07:26:59;;;;;;;10.98;4.60;;;;;;;24.58;42.27;100620.53;5046936;28;20041;-64
2021/06/04 07:29:27;;;;;;;8.65;4.10;;;;;;;24.88;41.16;100620.47;5036941;28;20061;-64
2021/06/04 07:31:53;;;;;;;14.65;3.95;;;;;;;25.51;40.62;100623.31;5061317;28;20072;-64
2021/06/04 07:34:19;;;;;;;8.43;4.43;;;;;;;25.86;40.24;100617.81;5061175;28;20062;-64
2021/06/04 07:36:49;;;;;;;10.13;4.55;;;;;;;25.92;39.88;100616.03;5059796;28;20033;-64
2021/06/04 07:39:22;;;;;;;5.97;4.18;;;;;;;25.87;38.11;100621.34;5048122;28;20033;-64
2021/06/04 07:41:48;;;;;;;9.90;4.10;;;;;;;25.88;38.92;100629.25;5045029;28;20026;-66
2021/06/04 07:44:15;;;;;;;9.05;3.80;;;;;;;26.04;38.76;100628.50;5046004;28;20041;-67
2021/06/04 07:46:43;;;;;;;7.32;3.80;;;;;;;25.92;38.51;100622.28;5044535;28;20029;-67
2021/06/04 07:49:09;;;;;;;5.07;3.42;;;;;;;25.77;37.47;100630.94;5057222;28;20037;-67
2021/06/04 07:51:40;;;;;;;9.13;4.07;;;;;;;25.82;37.47;100629.38;5060183;28;20068;-67
2021/06/04 07:54:08;;;;;;;8.75;3.90;;;;;;;25.89;37.24;100625.47;5040076;28;20026;-67
2021/06/04 07:56:34;;;;;;;36.97;5.32;;;;;;;26.50;36.39;100623.94;5041483;28;20203;-64
2021/06/04 07:59:00;;;;;;;8.00;3.80;;;;;;;26.70;34.93;100620.75;5039839;28;20045;-64
2021/06/04 08:01:29;;;;;;;5.15;3.38;;;;;;;26.57;35.48;100615.63;5034453;28;20047;-64
2021/06/04 08:03:55;;;;;;;5.95;2.92;;;;;;;26.51;34.41;100612.00;5036317;28;20041;-64
2021/06/04 08:06:21;;;;;;;9.77;3.47;;;;;;;26.78;34.62;100622.22;5034326;28;20214;-64
2021/06/04 08:08:46;;;;;;;6.47;3.22;;;;;;;26.88;35.12;100625.94;5036092;28;20041;-64
2021/06/04 08:11:20;;;;;;;13.57;3.42;;;;;;;26.83;34.19;100622.31;5034206;28;20044;-64
2021/06/04 08:13:46;;;;;;;19.23;3.70;;;;;;;26.56;35.06;100624.84;5034793;28;20033;-64
2021/06/04 08:16:12;;;;;;;3.85;2.97;;;;;;;25.98;35.51;100617.78;5034773;28;20040;-64
2021/06/04 08:18:40;;;;;;;10.38;3.28;;;;;;;26.14;35.10;100627.88;5036589;28;20106;-64
2021/06/04 08:21:13;;;;;;;7.15;3.17;;;;;;;26.32;35.71;100622.28;5032990;28;20089;-64
2021/06/04 08:23:44;;;;;;;7.53;3.25;;;;;;;26.47;34.77;100620.91;5034800;28;20079;-64
2021/06/04 08:26:13;;;;;;;6.78;3.03;;;;;;;26.60;35.25;100620.56;5036213;28;20364;-64
2021/06/04 08:28:39;;;;;;;6.72;3.53;;;;;;;26.91;35.60;100627.31;5036398;28;20037;-64
2021/06/04 08:31:06;;;;;;;5.57;3.20;;;;;;;27.15;34.10;100617.97;5035643;28;20025;-64
2021/06/04 08:33:37;;;;;;;4.65;2.90;;;;;;;27.65;32.73;100619.75;5034614;28;20097;-64
2021/06/04 08:36:05;;;;;;;20.13;4.20;;;;;;;27.99;32.44;100620.41;5035905;28;20041;-66
2021/06/04 08:38:33;;;;;;;6.28;3.47;;;;;;;27.23;33.09;100619.44;5034276;28;20319;-66
2021/06/04 08:41:16;;;;;;;7.50;3.20;;;;;;;27.11;33.65;100622.25;5027947;28;20214;-66
2021/06/04 08:44:00;;;;;;;17.77;3.22;;;;;;;27.19;34.17;100621.81;5034791;28;20022;-67
2021/06/04 08:46:29;;;;;;;6.13;3.45;;;;;;;26.97;34.53;100621.75;5034950;28;20079;-64
2021/06/04 08:49:12;;;;;;;5.28;3.25;;;;;;;26.80;34.97;100618.19;5034654;28;20037;-66
2021/06/04 08:51:59;;;;;;;10.57;3.47;;;;;;;27.01;35.24;100622.91;5025370;28;20147;-64
2021/06/04 08:54:36;;;;;;;4.70;3.05;;;;;;;26.85;33.71;100618.28;5014767;28;20063;-66
2021/06/04 08:57:25;;;;;;;8.80;3.15;;;;;;;26.86;34.71;100624.53;5014680;28;20045;-64
2021/06/04 08:59:55;;;;;;;7.68;3.00;;;;;;;26.35;34.51;100620.97;5013525;28;20359;-65
2021/06/04 09:02:33;;;;;;;4.45;3.03;;;;;;;26.50;33.72;100618.50;5014610;28;20042;-64
2021/06/04 09:08:28;;;;;;;9.55;2.95;;;;;;;26.94;32.81;100614.06;5012360;28;20178;-65
2021/06/04 09:11:23;;;;;;;8.20;3.28;;;;;;;26.70;34.13;100620.75;5014250;28;20315;-66
2021/06/04 09:13:48;;;;;;;6.53;3.30;;;;;;;26.89;33.49;100624.84;5015346;28;20231;-64
2021/06/04 09:16:37;;;;;;;7.28;2.70;;;;;;;27.31;31.49;100625.25;5015120;28;20045;-64
2021/06/04 09:19:22;;;;;;;4.40;2.90;;;;;;;27.34;30.74;100615.78;5014733;28;20172;-64
2021/06/04 09:21:50;;;;;;;5.63;3.20;;;;;;;27.64;29.65;100613.47;5002058;28;20239;-66
2021/06/04 09:24:25;;;;;;;6.18;2.85;;;;;;;27.87;30.32;100615.09;5016997;28;20030;-66
2021/06/04 09:26:51;;;;;;;3.75;2.70;;;;;;;27.45;31.51;100617.56;5019789;28;20029;-65
2021/06/04 09:29:21;;;;;;;5.32;3.00;;;;;;;27.28;31.86;100609.44;5013901;28;20049;-66
2021/06/04 09:31:57;;;;;;;3.75;2.50;;;;;;;27.51;31.40;100615.72;5015696;28;20041;-64
2021/06/04 09:34:26;;;;;;;3.92;2.40;;;;;;;27.37;32.17;100611.72;5015813;28;20037;-64
2021/06/04 09:37:27;;;;;;;8.18;3.17;;;;;;;27.09;33.19;100607.25;5020951;28;20030;-66
2021/06/04 09:40:18;;;;;;;4.15;2.72;;;;;;;26.59;33.11;100608.06;5020756;28;20037;-64
2021/06/04 09:43:01;;;;;;;13.15;3.40;;;;;;;26.72;34.35;100597.69;5020447;28;20050;-62
2021/06/04 09:45:32;;;;;;;7.70;2.83;;;;;;;26.79;33.97;100607.56;5035389;28;20065;-64
2021/06/04 09:48:06;;;;;;;8.23;2.88;;;;;;;26.99;33.94;100603.28;5032414;28;20327;-64
2021/06/04 09:50:45;;;;;;;6.70;3.45;;;;;;;26.68;34.22;100599.25;5017493;28;20022;-64
2021/06/04 09:53:20;;;;;;;3.42;2.78;;;;;;;27.13;33.23;100590.22;5042172;28;20071;-64
2021/06/04 09:55:48;;;;;;;4.00;2.80;;;;;;;27.32;32.61;100605.16;5058636;28;20037;-64
2021/06/04 09:58:13;;;;;;;7.35;3.22;;;;;;;27.01;33.84;100597.59;5060470;28;20296;-64
2021/06/04 10:00:54;;;;;;;9.52;2.78;;;;;;;26.63;33.67;100596.47;5062448;28;20040;-64
2021/06/04 10:03:30;;;;;;;6.00;2.80;;;;;;;26.32;34.26;100584.25;5063654;28;20748;-64
2021/06/04 10:06:19;;;;;;;5.65;2.50;;;;;;;26.35;33.97;100593.81;5061060;28;20047;-64
2021/06/04 10:09:01;;;;;;;6.93;2.97;;;;;;;26.44;33.71;100578.75;5060546;28;20040;-66
2021/06/04 10:11:46;;;;;;;5.05;3.05;;;;;;;26.36;35.41;100571.03;5062761;28;20037;-66
2021/06/04 10:14:24;;;;;;;4.22;2.35;;;;;;;26.39;34.06;100582.22;5063080;28;20048;-64
2021/06/04 10:19:54;;;;;;;6.93;2.80;;;;;;;26.38;32.67;100574.31;5061703;28;20025;-64
2021/06/04 10:22:33;;;;;;;5.63;2.47;;;;;;;26.67;32.69;100583.19;5063141;28;20033;-64
2021/06/04 10:24:59;;;;;;;4.10;2.58;;;;;;;26.77;31.30;100579.81;5062826;28;20037;-64
2021/06/04 10:27:28;;;;;;;2.88;1.70;;;;;;;26.80;29.41;100582.88;5062479;28;20025;-66
2021/06/04 10:30:09;;;;;;;5.88;2.40;;;;;;;26.70;32.67;100580.00;5062996;28;20040;-66
2021/06/04 10:32:53;;;;;;;4.38;2.55;;;;;;;26.81;32.07;100584.50;5042785;28;20095;-66
2021/06/04 10:35:50;;;;;;;3.10;2.30;;;;;;;27.05;31.29;100577.03;5061454;28;20219;-66
2021/06/04 10:38:34;;;;;;;3.28;2.10;;;;;;;27.02;30.42;100580.22;5055500;28;20049;-66
2021/06/04 10:41:09;;;;;;;4.18;2.33;;;;;;;27.10;30.78;100571.69;5061916;28;20040;-67
2021/06/04 10:44:11;;;;;;;6.40;2.40;;;;;;;27.16;30.18;100575.28;5061682;28;20049;-66
2021/06/04 10:46:55;;;;;;;2.63;2.10;;;;;;;26.86;31.50;100572.91;5061870;28;20041;-64
2021/06/04 10:49:33;;;;;;;5.00;2.58;;;;;;;26.68;33.56;100577.53;5062430;28;20031;-64
2021/06/04 10:52:25;;;;;;;6.03;2.10;;;;;;;26.58;32.30;100580.06;5061160;28;20082;-66
2021/06/04 10:55:00;;;;;;;4.90;2.45;;;;;;;26.27;32.42;100584.16;5040567;28;20230;-64
2021/06/04 10:57:32;;;;;;;8.25;2.55;;;;;;;25.80;32.94;100588.94;5043132;28;20041;-66
2021/06/04 11:00:12;;;;;;;4.63;2.22;;;;;;;25.45;33.63;100584.41;5042891;28;20029;-66
2021/06/04 11:02:48;;;;;;;3.78;2.40;;;;;;;25.39;35.38;100585.38;5042433;28;20155;-66
2021/06/04 11:05:22;;;;;;;10.55;2.65;;;;;;;25.56;33.27;100587.34;5042896;28;20036;-66
2021/06/04 11:08:29;;;;;;;4.25;2.38;;;;;;;25.22;34.20;100578.22;5040427;28;20036;-65
2021/06/04 11:11:19;;;;;;;6.75;2.50;;;;;;;25.44;34.22;100577.34;5035134;28;20053;-64
2021/06/04 11:13:56;;;;;;;7.15;2.20;;;;;;;25.60;34.42;100575.78;5041955;28;20101;-66
2021/06/04 11:17:03;;;;;;;5.13;2.72;;;;;;;25.76;33.94;100576.94;5042550;28;20041;-66
2021/06/04 11:20:07;;;;;;;3.08;2.50;;;;;;;25.88;32.79;100568.75;4997316;28;20044;-66
2021/06/04 11:22:57;;;;;;;3.03;2.45;;;;;;;25.92;34.27;100570.72;4959249;28;20104;-66
2021/06/04 11:25:52;;;;;;;3.28;2.22;;;;;;;25.63;34.53;100571.75;5042550;28;20033;-66
2021/06/04 11:28:43;;;;;;;6.63;2.50;;;;;;;26.13;33.03;100580.09;5040634;28;20373;-64
2021/06/04 11:31:47;;;;;;;4.80;2.22;;;;;;;25.74;33.31;100573.63;5042005;28;20631;-66
2021/06/04 11:34:22;;;;;;;4.55;2.22;;;;;;;25.75;33.75;100565.25;5041926;28;20049;-67
2021/06/04 11:36:47;;;;;;;7.10;2.60;;;;;;;26.11;34.32;100565.13;5042226;28;20187;-64
2021/06/04 11:39:37;;;;;;;4.68;2.47;;;;;;;26.14;33.21;100560.03;5042134;28;20045;-66
2021/06/04 11:42:13;;;;;;;5.10;2.50;;;;;;;26.13;33.73;100569.22;5041803;28;20041;-66
2021/06/04 11:44:44;;;;;;;3.42;2.45;;;;;;;26.06;33.45;100563.13;5040699;28;20044;-66
2021/06/04 11:47:15;;;;;;;3.53;2.20;;;;;;;26.47;32.79;100561.97;5041827;28;20046;-64
2021/06/04 11:49:52;;;;;;;8.68;2.60;;;;;;;26.20;33.51;100569.09;5041983;28;20364;-64
2021/06/04 11:52:26;;;;;;;7.88;2.58;;;;;;;26.28;32.75;100561.34;5045802;28;20076;-66